createdAt,value
2022-12-08T00:01:28.630Z,101251.75
2022-12-08T00:03:56.596Z,101265.53
2022-12-08T00:06:47.387Z,101271.69
2022-12-08T00:09:22.324Z,101273.63
2022-12-08T00:11:58.114Z,101276.31
2022-12-08T00:14:29.019Z,101274.66
2022-12-08T00:16:56.893Z,101255.66
2022-12-08T00:19:24.813Z,101271.34
2022-12-08T00:21:52.888Z,101265.28
2022-12-08T00:24:21.000Z,101262.66
2022-12-08T00:26:47.995Z,101259.22
2022-12-08T00:29:17.510Z,101250.47
2022-12-08T00:31:45.011Z,101233.91
2022-12-08T00:34:13.722Z,101226.13
2022-12-08T00:36:41.078Z,101227.09
2022-12-08T00:39:08.027Z,101235.03
2022-12-08T00:41:53.404Z,101243.00
2022-12-08T00:44:20.328Z,101240.41
2022-12-08T00:46:48.483Z,101231.69
2022-12-08T00:49:16.532Z,101220.38
2022-12-08T00:51:44.120Z,101191.81
2022-12-08T00:54:11.614Z,101214.34
2022-12-08T00:56:39.024Z,101211.81
2022-12-08T00:59:07.389Z,101211.91
2022-12-08T01:01:35.485Z,101208.41
2022-12-08T01:04:07.764Z,101210.22
2022-12-08T01:06:38.232Z,101210.31
2022-12-08T01:09:06.740Z,101212.06
2022-12-08T01:11:34.547Z,101208.63
2022-12-08T01:14:01.617Z,101204.28
2022-12-08T01:16:32.187Z,101192.94
2022-12-08T01:18:59.814Z,101195.59
2022-12-08T01:21:27.167Z,101185.16
2022-12-08T01:23:55.069Z,101186.91
2022-12-08T01:26:22.505Z,101187.00
2022-12-08T01:28:49.833Z,101190.50
2022-12-08T01:31:19.801Z,101182.94
2022-12-08T01:33:48.019Z,101194.09
2022-12-08T01:36:29.576Z,101184.78
2022-12-08T01:39:02.401Z,101169.91
2022-12-08T01:41:32.743Z,101162.09
2022-12-08T01:44:19.844Z,101176.75
2022-12-08T01:46:50.012Z,101175.06
2022-12-08T01:49:30.879Z,101176.84
2022-12-08T01:52:03.505Z,101176.84
2022-12-08T01:54:35.192Z,101184.78
2022-12-08T01:57:12.323Z,101186.56
2022-12-08T01:59:47.037Z,101184.81
2022-12-08T02:02:14.248Z,101176.13
2022-12-08T02:04:41.209Z,101177.06
2022-12-08T02:07:10.779Z,101166.56
2022-12-08T02:09:40.142Z,101166.59
2022-12-08T02:12:07.793Z,101169.28
2022-12-08T02:14:35.277Z,101171.91
2022-12-08T02:17:43.545Z,101174.53
2022-12-08T02:20:53.611Z,101169.28
2022-12-08T02:23:29.315Z,101169.31
2022-12-08T02:26:23.111Z,101172.84
2022-12-08T02:29:22.336Z,101157.38
2022-12-08T02:32:04.126Z,101151.34
2022-12-08T02:34:46.265Z,101158.88
2022-12-08T02:37:26.902Z,101163.31
2022-12-08T02:40:21.387Z,101154.59
2022-12-08T02:42:51.486Z,101124.22
2022-12-08T02:45:47.347Z,101146.75
2022-12-08T02:48:15.631Z,101138.00
2022-12-08T02:50:42.783Z,101133.66
2022-12-08T02:55:57.820Z,101122.31
2022-12-08T02:58:35.574Z,101105.97
2022-12-08T03:01:05.187Z,101119.72
2022-12-08T03:03:37.760Z,101119.72
2022-12-08T03:06:55.770Z,101113.59
2022-12-08T03:09:36.477Z,101112.78
2022-12-08T03:12:12.451Z,101110.16
2022-12-08T03:14:44.789Z,101089.47
2022-12-08T03:17:13.197Z,101103.22
2022-12-08T03:19:43.591Z,101100.63
2022-12-08T03:22:12.792Z,101084.31
2022-12-08T03:24:46.174Z,101093.66
2022-12-08T03:27:19.844Z,101093.66
2022-12-08T03:29:50.300Z,101070.34
2022-12-08T03:32:27.649Z,101062.53
2022-12-08T03:34:56.639Z,101073.59
2022-12-08T03:37:23.594Z,101051.16
2022-12-08T03:39:50.399Z,101066.63
2022-12-08T03:42:17.349Z,101066.63
2022-12-08T03:44:44.225Z,101054.34
2022-12-08T03:47:11.161Z,101058.78
2022-12-08T03:49:38.118Z,101050.91
2022-12-08T03:52:05.252Z,101054.47
2022-12-08T03:54:32.137Z,101036.06
2022-12-08T03:56:59.047Z,101045.72
2022-12-08T03:59:25.865Z,101012.78
2022-12-08T04:01:52.810Z,101012.78
2022-12-08T04:04:19.714Z,101020.41
2022-12-08T04:06:47.438Z,101025.66
2022-12-08T04:09:14.333Z,101002.03
2022-12-08T04:11:41.409Z,101002.91
2022-12-08T04:14:08.307Z,100995.97
2022-12-08T04:16:35.287Z,100993.38
2022-12-08T04:19:02.346Z,100998.63
2022-12-08T04:21:29.266Z,101008.22
2022-12-08T04:24:00.758Z,100991.66
2022-12-08T04:26:28.422Z,100992.50
2022-12-08T04:28:55.260Z,100997.75
2022-12-08T04:31:22.318Z,100997.75
2022-12-08T04:33:49.276Z,100990.81
2022-12-08T04:36:16.205Z,100986.44
2022-12-08T04:38:43.121Z,100984.75
2022-12-08T04:41:10.372Z,100989.09
2022-12-08T04:43:37.497Z,100985.66
2022-12-08T04:46:09.111Z,100969.25
2022-12-08T04:48:38.618Z,100989.19
2022-12-08T04:51:06.212Z,100971.88
2022-12-08T04:53:33.261Z,100990.09
2022-12-08T04:56:00.200Z,100996.25
2022-12-08T04:58:27.067Z,100996.31
2022-12-08T05:00:53.962Z,100999.91
2022-12-08T05:03:26.858Z,100992.97
2022-12-08T05:05:55.440Z,101000.94
2022-12-08T05:08:22.348Z,100989.84
2022-12-08T05:10:49.174Z,100993.13
2022-12-08T05:13:16.024Z,100994.03
2022-12-08T05:15:42.894Z,100987.91
2022-12-08T05:18:09.756Z,100981.25
2022-12-08T05:20:36.839Z,100989.75
2022-12-08T05:23:03.869Z,100988.88
2022-12-08T05:25:30.702Z,100969.09
2022-12-08T05:28:17.663Z,100982.81
2022-12-08T05:30:44.453Z,100961.03
2022-12-08T05:33:11.332Z,100961.03
2022-12-08T05:35:38.227Z,100956.66
2022-12-08T05:38:06.042Z,100951.50
2022-12-08T05:40:32.996Z,100955.78
2022-12-08T05:42:59.817Z,100936.72
2022-12-08T05:45:27.141Z,100931.22
2022-12-08T05:47:54.337Z,100932.78
2022-12-08T05:50:21.153Z,100913.50
2022-12-08T05:52:47.963Z,100920.34
2022-12-08T05:55:14.808Z,100911.91
2022-12-08T05:57:41.592Z,100914.22
2022-12-08T06:00:09.220Z,100903.72
2022-12-08T06:02:36.330Z,100912.34
2022-12-08T06:05:03.228Z,100900.88
2022-12-08T06:07:30.155Z,100893.19
2022-12-08T06:09:56.967Z,100902.41
2022-12-08T06:12:24.540Z,100908.44
2022-12-08T06:14:51.418Z,100902.25
2022-12-08T06:17:18.230Z,100884.03
2022-12-08T06:19:45.112Z,100899.47
2022-12-08T06:22:12.118Z,100894.06
2022-12-08T06:24:38.938Z,100886.69
2022-12-08T06:27:05.837Z,100889.22
2022-12-08T06:29:32.718Z,100870.31
2022-12-08T06:31:59.644Z,100901.53
2022-12-08T06:34:26.933Z,100901.28
2022-12-08T06:36:53.704Z,100892.50
2022-12-08T06:39:20.535Z,100893.19
2022-12-08T06:42:05.916Z,100884.66
2022-12-08T06:44:32.773Z,100896.63
2022-12-08T06:46:59.643Z,100904.59
2022-12-08T06:49:26.549Z,100909.25
2022-12-08T06:51:53.446Z,100904.19
2022-12-08T06:54:20.425Z,100892.41
2022-12-08T06:56:47.369Z,100898.31
2022-12-08T06:59:14.311Z,100887.25
2022-12-08T07:01:41.507Z,100898.41
2022-12-08T07:04:08.527Z,100901.06
2022-12-08T07:06:35.544Z,100886.50
2022-12-08T07:09:02.405Z,100886.28
2022-12-08T07:11:29.335Z,100881.91
2022-12-08T07:13:57.652Z,100873.44
2022-12-08T07:16:25.006Z,100868.28
2022-12-08T07:18:52.075Z,100870.91
2022-12-08T07:21:19.058Z,100896.84
2022-12-08T07:23:50.173Z,100895.81
2022-12-08T07:26:21.076Z,100900.94
2022-12-08T07:28:48.272Z,100893.38
2022-12-08T07:31:25.840Z,100891.22
2022-12-08T07:33:53.467Z,100886.38
2022-12-08T07:36:20.463Z,100879.28
2022-12-08T07:38:48.084Z,100875.84
2022-12-08T07:41:17.452Z,100874.03
2022-12-08T07:43:45.285Z,100881.16
2022-12-08T07:46:13.862Z,100897.84
2022-12-08T07:48:41.058Z,100896.19
2022-12-08T07:51:08.565Z,100908.47
2022-12-08T07:53:35.582Z,100904.97
2022-12-08T07:56:06.995Z,100907.66
2022-12-08T07:58:34.226Z,100910.38
2022-12-08T08:01:01.380Z,100911.31
2022-12-08T08:03:28.478Z,100916.56
2022-12-08T08:05:56.023Z,100907.84
2022-12-08T08:08:23.192Z,100916.66
2022-12-08T08:10:50.133Z,100914.94
2022-12-08T08:13:17.922Z,100911.50
2022-12-08T08:15:45.131Z,100915.81
2022-12-08T08:18:12.818Z,100915.81
2022-12-08T08:20:40.445Z,100919.38
2022-12-08T08:23:07.703Z,100926.38
2022-12-08T08:25:34.818Z,100924.63
2022-12-08T08:28:01.949Z,100930.84
2022-12-08T08:30:28.968Z,100922.38
2022-12-08T08:32:56.006Z,100926.72
2022-12-08T08:35:23.125Z,100940.53
2022-12-08T08:37:50.202Z,100934.41
2022-12-08T08:40:18.598Z,100939.66
2022-12-08T08:42:45.585Z,100940.53
2022-12-08T08:45:12.839Z,100942.31
2022-12-08T08:47:39.994Z,100926.88
2022-12-08T08:50:08.043Z,100937.13
2022-12-08T08:52:35.993Z,100941.47
2022-12-08T08:55:03.523Z,100935.38
2022-12-08T08:57:30.564Z,100931.91
2022-12-08T08:59:57.452Z,100929.28
2022-12-08T09:02:24.576Z,100939.84
2022-12-08T09:04:51.719Z,100919.13
2022-12-08T09:07:18.887Z,100939.00
2022-12-08T09:09:46.931Z,100927.63
2022-12-08T09:12:14.452Z,100910.47
2022-12-08T09:14:41.635Z,100899.97
2022-12-08T09:17:10.180Z,100911.09
2022-12-08T09:19:37.810Z,100912.81
2022-12-08T09:22:06.427Z,100890.41
2022-12-08T09:24:33.548Z,100907.59
2022-12-08T09:27:01.039Z,100891.03
2022-12-08T09:29:32.622Z,100867.41
2022-12-08T09:32:02.784Z,100863.06
2022-12-08T09:34:33.066Z,100868.28
2022-12-08T09:37:00.297Z,100880.63
2022-12-08T09:39:27.773Z,100880.56
2022-12-08T09:42:07.897Z,100888.44
2022-12-08T09:44:49.211Z,100878.81
2022-12-08T09:47:30.724Z,100903.31
2022-12-08T09:50:26.440Z,100910.38
2022-12-08T09:53:05.317Z,100899.88
2022-12-08T09:55:54.375Z,100906.00
2022-12-08T09:58:42.678Z,100909.47
2022-12-08T10:01:11.862Z,100909.50
2022-12-08T10:03:39.120Z,100908.66
2022-12-08T10:06:42.928Z,100889.66
2022-12-08T10:09:42.473Z,100911.28
2022-12-08T10:12:23.607Z,100911.28
2022-12-08T10:15:14.251Z,100903.47
2022-12-08T10:17:52.644Z,100916.59
2022-12-08T10:20:22.846Z,100918.34
2022-12-08T10:23:13.003Z,100923.56
2022-12-08T10:25:46.236Z,100917.44
2022-12-08T10:28:13.831Z,100919.13
2022-12-08T10:30:41.709Z,100915.69
2022-12-08T10:33:17.122Z,100906.03
2022-12-08T10:35:53.700Z,100900.84
2022-12-08T10:38:31.078Z,100912.19
2022-12-08T10:41:10.219Z,100897.31
2022-12-08T10:43:47.437Z,100897.31
2022-12-08T10:46:22.053Z,100884.22
2022-12-08T10:49:09.404Z,100885.09
2022-12-08T10:51:44.690Z,100876.53
2022-12-08T10:54:33.961Z,100885.97
2022-12-08T10:57:01.156Z,100895.59
2022-12-08T10:59:28.610Z,100890.28
2022-12-08T11:01:57.562Z,100898.16
2022-12-08T11:04:36.939Z,100893.75
2022-12-08T11:07:06.796Z,100887.63
2022-12-08T11:09:48.517Z,100886.75
2022-12-08T11:12:21.123Z,100881.56
2022-12-08T11:14:50.164Z,100867.53
2022-12-08T11:17:24.565Z,100868.41
2022-12-08T11:20:19.436Z,100874.50
2022-12-08T11:22:54.156Z,100864.88
2022-12-08T11:25:27.274Z,100864.88
2022-12-08T11:27:58.435Z,100855.19
2022-12-08T11:30:31.051Z,100849.94
2022-12-08T11:33:01.553Z,100855.13
2022-12-08T11:35:37.304Z,100861.19
2022-12-08T11:38:41.391Z,100842.16
2022-12-08T11:41:19.325Z,100829.94
2022-12-08T11:44:08.219Z,100831.59
2022-12-08T11:46:48.158Z,100857.47
2022-12-08T11:49:17.117Z,100849.03
2022-12-08T11:52:15.948Z,100870.47
2022-12-08T11:54:58.813Z,100873.03
2022-12-08T11:57:29.110Z,100872.13
2022-12-08T11:59:58.726Z,100878.28
2022-12-08T12:02:30.198Z,100879.16
2022-12-08T12:05:23.587Z,100857.63
2022-12-08T12:08:06.460Z,100874.84
2022-12-08T12:10:51.822Z,100867.88
2022-12-08T12:13:29.630Z,100870.41
2022-12-08T12:16:20.122Z,100865.16
2022-12-08T12:18:59.610Z,100864.28
2022-12-08T12:21:36.700Z,100859.97
2022-12-08T12:24:26.107Z,100848.59
2022-12-08T12:27:00.174Z,100853.84
2022-12-08T12:29:35.265Z,100852.13
2022-12-08T12:32:05.861Z,100836.63
2022-12-08T12:34:44.644Z,100845.91
2022-12-08T12:37:15.535Z,100845.03
2022-12-08T12:40:02.305Z,100844.06
2022-12-08T12:42:43.891Z,100843.16
2022-12-08T12:45:31.531Z,100835.31
2022-12-08T12:48:01.193Z,100820.75
2022-12-08T12:50:34.518Z,100815.38
2022-12-08T12:53:10.650Z,100827.25
2022-12-08T12:55:46.700Z,100834.25
2022-12-08T12:58:28.807Z,100835.19
2022-12-08T13:01:11.376Z,100824.19
2022-12-08T13:04:03.331Z,100822.47
2022-12-08T13:06:47.393Z,100827.41
2022-12-08T13:09:42.138Z,100808.53
2022-12-08T13:12:12.528Z,100834.47
2022-12-08T13:14:47.950Z,100838.88
2022-12-08T13:17:27.994Z,100838.00
2022-12-08T13:19:58.030Z,100832.75
2022-12-08T13:22:46.942Z,100826.59
2022-12-08T13:25:45.378Z,100818.94
2022-12-08T13:28:24.932Z,100826.47
2022-12-08T13:31:01.816Z,100822.19
2022-12-08T13:33:32.884Z,100817.00
2022-12-08T13:36:17.907Z,100817.88
2022-12-08T13:38:47.517Z,100819.56
2022-12-08T13:41:23.182Z,100827.41
2022-12-08T13:44:50.817Z,100817.72
2022-12-08T13:58:39.348Z,100802.28
2022-12-08T14:01:21.098Z,100823.75
2022-12-08T14:04:22.148Z,100825.53
2022-12-08T14:06:46.033Z,100824.63
2022-12-08T14:09:21.579Z,100808.34
2022-12-08T14:12:03.964Z,100821.22
2022-12-08T14:15:02.546Z,100821.22
2022-12-08T14:17:31.518Z,100821.31
2022-12-08T14:20:02.721Z,100822.16
2022-12-08T14:22:37.109Z,100816.91
2022-12-08T14:25:06.704Z,100809.94
2022-12-08T14:27:37.302Z,100820.38
2022-12-08T14:30:13.948Z,100794.50
2022-12-08T14:32:45.165Z,100808.22
2022-12-08T14:35:27.555Z,100803.81
2022-12-08T14:38:16.761Z,100796.88
2022-12-08T14:41:10.575Z,100783.19
2022-12-08T14:43:37.497Z,100793.44
2022-12-08T14:46:19.790Z,100803.09
2022-12-08T14:48:47.290Z,100797.84
2022-12-08T14:51:20.073Z,100805.72
2022-12-08T14:54:05.663Z,100810.09
2022-12-08T14:56:52.618Z,100805.75
2022-12-08T14:59:25.274Z,100804.88
2022-12-08T15:02:09.276Z,100790.38
2022-12-08T15:04:42.668Z,100811.06
2022-12-08T15:07:13.055Z,100802.38
2022-12-08T15:09:49.531Z,100810.13
2022-12-08T15:12:27.069Z,100793.06
2022-12-08T15:14:59.073Z,100790.44
2022-12-08T15:17:38.115Z,100789.59
2022-12-08T15:20:07.813Z,100801.56
2022-12-08T15:22:35.437Z,100805.06
2022-12-08T15:25:02.720Z,100800.72
2022-12-08T15:27:32.298Z,100803.34
2022-12-08T15:30:04.623Z,100806.81
2022-12-08T15:32:31.941Z,100799.88
2022-12-08T15:34:59.009Z,100799.03
2022-12-08T15:37:32.844Z,100805.16
2022-12-08T15:40:01.225Z,100814.78
2022-12-08T15:42:35.272Z,100811.34
2022-12-08T15:45:02.397Z,100810.47
2022-12-08T15:47:31.513Z,100814.84
2022-12-08T15:49:58.729Z,100798.50
2022-12-08T15:52:25.814Z,100811.38
2022-12-08T15:54:53.487Z,100814.00
2022-12-08T15:57:53.557Z,100818.34
2022-12-08T16:00:55.841Z,100810.47
2022-12-08T16:04:19.803Z,100801.72
2022-12-08T16:09:33.833Z,100799.97
2022-12-08T16:12:20.262Z,100803.50
2022-12-08T16:17:36.239Z,100805.22
2022-12-08T16:20:03.993Z,100794.81
2022-12-08T16:25:21.751Z,100805.22
2022-12-08T16:28:17.301Z,100813.09
2022-12-08T16:30:42.539Z,100815.72
2022-12-08T16:33:12.085Z,100813.13
2022-12-08T16:35:39.541Z,100789.78
2022-12-08T16:38:07.008Z,100804.34
2022-12-08T16:40:55.504Z,100786.25
2022-12-08T16:43:22.998Z,100807.88
2022-12-08T16:45:54.835Z,100796.78
2022-12-08T16:48:27.381Z,100810.50
2022-12-08T16:50:56.425Z,100813.13
2022-12-08T16:53:32.993Z,100798.56
2022-12-08T16:56:03.948Z,100813.13
2022-12-08T16:58:31.190Z,100821.94
2022-12-08T17:00:59.962Z,100815.81
2022-12-08T17:03:27.141Z,100815.81
2022-12-08T17:05:54.660Z,100800.38
2022-12-08T17:08:21.900Z,100798.69
2022-12-08T17:11:07.683Z,100812.34
2022-12-08T17:13:37.112Z,100810.59
2022-12-08T17:16:10.316Z,100814.97
2022-12-08T17:18:38.460Z,100798.34
2022-12-08T17:21:14.169Z,100793.09
2022-12-08T17:23:44.816Z,100789.88
2022-12-08T17:26:13.135Z,100801.91
2022-12-08T17:29:10.103Z,100799.28
2022-12-08T17:31:31.094Z,100804.53
2022-12-08T17:34:04.890Z,100803.66
2022-12-08T17:36:32.319Z,100776.94
2022-12-08T17:39:00.742Z,100791.06
2022-12-08T17:41:29.604Z,100804.81
2022-12-08T17:43:56.969Z,100802.13
2022-12-08T17:46:24.812Z,100796.94
2022-12-08T17:48:52.280Z,100802.19
2022-12-08T17:51:19.547Z,100796.94
2022-12-08T17:53:46.608Z,100775.44
2022-12-08T17:56:19.887Z,100796.78
2022-12-08T17:58:52.609Z,100787.75
2022-12-08T18:01:21.353Z,100778.22
2022-12-08T18:03:48.555Z,100780.44
2022-12-08T18:06:18.070Z,100757.88
2022-12-08T18:08:45.702Z,100748.22
2022-12-08T18:11:19.993Z,100761.84
2022-12-08T18:13:48.422Z,100753.91
2022-12-08T18:16:16.368Z,100753.91
2022-12-08T18:18:43.455Z,100735.81
2022-12-08T18:21:11.248Z,100750.25
2022-12-08T18:23:40.678Z,100746.63
2022-12-08T18:26:09.734Z,100737.72
2022-12-08T18:28:38.283Z,100741.03
2022-12-08T18:31:14.212Z,100741.78
2022-12-08T18:33:43.458Z,100729.81
2022-12-08T18:36:16.582Z,100749.50
2022-12-08T18:38:46.564Z,100745.03
2022-12-08T18:41:16.537Z,100745.88
2022-12-08T18:43:43.682Z,100737.03
2022-12-08T18:46:13.203Z,100742.22
2022-12-08T18:48:43.842Z,100734.22
2022-12-08T18:51:12.576Z,100718.69
2022-12-08T18:53:40.228Z,100709.81
2022-12-08T18:56:07.918Z,100715.75
2022-12-08T18:58:35.704Z,100734.47
2022-12-08T19:01:03.024Z,100727.59
2022-12-08T19:03:30.340Z,100727.75
2022-12-08T19:06:05.604Z,100704.19
2022-12-08T19:08:33.493Z,100730.66
2022-12-08T19:11:01.454Z,100724.38
2022-12-08T19:13:31.756Z,100701.72
2022-12-08T19:15:59.000Z,100715.13
2022-12-08T19:18:26.160Z,100720.22
2022-12-08T19:20:57.255Z,100693.19
2022-12-08T19:23:24.550Z,100710.06
2022-12-08T19:25:51.807Z,100700.13
2022-12-08T19:28:19.571Z,100699.88
2022-12-08T19:30:47.855Z,100682.44
2022-12-08T19:33:15.219Z,100692.31
2022-12-08T19:35:50.731Z,100696.41
2022-12-08T19:38:21.244Z,100678.13
2022-12-08T19:41:09.262Z,100693.19
2022-12-08T19:43:57.770Z,100687.66
2022-12-08T19:46:28.247Z,100673.72
2022-12-08T19:48:57.492Z,100670.88
2022-12-08T19:51:28.666Z,100687.81
2022-12-08T19:54:01.745Z,100673.88
2022-12-08T19:56:32.643Z,100686.47
2022-12-08T19:59:01.169Z,100686.22
2022-12-08T20:01:29.255Z,100685.16
2022-12-08T20:03:58.033Z,100668.56
2022-12-08T20:06:27.735Z,100683.66
2022-12-08T20:08:57.144Z,100679.25
2022-12-08T20:11:26.140Z,100680.84
2022-12-08T20:13:53.662Z,100684.53
2022-12-08T20:16:21.972Z,100679.06
2022-12-08T20:18:49.434Z,100677.22
2022-12-08T20:21:17.562Z,100662.53
2022-12-08T20:23:46.036Z,100669.53
2022-12-08T20:26:16.734Z,100677.06
2022-12-08T20:28:45.644Z,100663.09
2022-12-08T20:31:28.096Z,100674.44
2022-12-08T20:33:56.144Z,100661.41
2022-12-08T20:36:25.817Z,100660.63
2022-12-08T20:38:57.126Z,100653.78
2022-12-08T20:41:25.533Z,100642.81
2022-12-08T20:43:53.546Z,100655.63
2022-12-08T20:46:22.795Z,100646.72
2022-12-08T20:48:52.769Z,100656.50
2022-12-08T20:51:28.426Z,100654.56
2022-12-08T20:54:00.547Z,100649.09
2022-12-08T20:56:28.564Z,100641.88
2022-12-08T20:58:57.075Z,100630.66
2022-12-08T21:01:26.379Z,100634.47
2022-12-08T21:03:54.895Z,100632.41
2022-12-08T21:06:25.093Z,100635.53
2022-12-08T21:08:56.585Z,100631.97
2022-12-08T21:11:25.608Z,100628.19
2022-12-08T21:13:56.125Z,100618.38
2022-12-08T21:16:23.524Z,100621.72
2022-12-08T21:18:51.426Z,100618.13
2022-12-08T21:21:18.540Z,100614.56
2022-12-08T21:23:48.386Z,100617.84
2022-12-08T21:26:19.302Z,100607.59
2022-12-08T21:28:49.149Z,100620.97
2022-12-08T21:31:19.475Z,100601.88
2022-12-08T21:33:47.908Z,100616.06
2022-12-08T21:36:18.840Z,100600.09
2022-12-08T21:38:46.866Z,100581.72
2022-12-08T21:41:43.496Z,100599.72
2022-12-08T21:44:15.535Z,100602.19
2022-12-08T21:46:43.729Z,100614.47
2022-12-08T21:49:11.768Z,100614.31
2022-12-08T21:51:42.959Z,100618.81
2022-12-08T21:54:18.385Z,100611.22
2022-12-08T21:56:49.092Z,100616.63
2022-12-08T21:59:19.075Z,100629.09
2022-12-08T22:01:47.536Z,100630.13
2022-12-08T22:04:23.007Z,100613.81
2022-12-08T22:06:52.648Z,100613.81
2022-12-08T22:09:22.930Z,100627.34
2022-12-08T22:11:52.720Z,100617.78
2022-12-08T22:14:21.786Z,100613.66
2022-12-08T22:16:49.883Z,100617.22
2022-12-08T22:19:21.189Z,100613.75
2022-12-08T22:21:50.279Z,100608.53
2022-12-08T22:24:17.931Z,100606.16
2022-12-08T22:26:47.950Z,100595.22
2022-12-08T22:29:16.735Z,100606.19
2022-12-08T22:31:45.529Z,100596.59
2022-12-08T22:34:13.178Z,100609.00
2022-12-08T22:36:43.657Z,100602.03
2022-12-08T22:39:13.443Z,100597.75
2022-12-08T22:41:40.846Z,100591.72
2022-12-08T22:44:10.273Z,100582.19
2022-12-08T22:46:38.554Z,100563.88
2022-12-08T22:49:05.918Z,100549.84
2022-12-08T22:51:40.195Z,100553.31
2022-12-08T22:54:07.626Z,100535.56
2022-12-08T22:56:37.149Z,100547.56
2022-12-08T22:59:05.383Z,100545.94
2022-12-08T23:01:34.554Z,100548.72
2022-12-08T23:04:02.631Z,100552.38
2022-12-08T23:06:31.671Z,100548.09
2022-12-08T23:08:59.933Z,100531.09
2022-12-08T23:11:30.324Z,100523.34
2022-12-08T23:14:01.013Z,100517.06
2022-12-08T23:16:28.916Z,100517.94
2022-12-08T23:18:56.166Z,100520.06
2022-12-08T23:21:23.523Z,100509.69
2022-12-08T23:23:51.397Z,100508.84
2022-12-08T23:26:22.043Z,100501.94
2022-12-08T23:28:50.261Z,100488.06
2022-12-08T23:31:18.982Z,100487.34
2022-12-08T23:33:47.959Z,100463.31
2022-12-08T23:36:17.167Z,100488.44
2022-12-08T23:38:44.377Z,100484.09
2022-12-08T23:41:14.351Z,100489.28
2022-12-08T23:43:50.959Z,100495.53
2022-12-08T23:46:20.287Z,100492.13
2022-12-08T23:48:48.036Z,100500.31
2022-12-08T23:51:15.477Z,100495.16
2022-12-08T23:53:43.601Z,100499.69
2022-12-08T23:56:15.010Z,100502.47
2022-12-08T23:58:43.621Z,100502.56
